Time;durP1;ratioP1;P1;durP2;ratioP2;P2;SDS_P1;SDS_P2;PMS_P1;PMS_P2;Temp;Humidity;BMP_temperature;BMP_pressure;BME280_temperature;BME280_humidity;BME280_pressure;Samples;Min_cycle;Max_cycle;Signal;HPM_P1;HPM_P2
2022/03/22 10:13:04;;;;;;;9.52;5.47;;;22.20;48.60;;;;;;5116264;27;20338;-72
2022/03/22 10:15:33;;;;;;;7.22;5.22;;;22.10;49.30;;;;;;5091664;28;20469;-74
2022/03/22 10:18:09;;;;;;;8.95;5.57;;;22.10;49.80;;;;;;5088315;28;20093;-73
2022/03/22 10:20:40;;;;;;;8.10;5.38;;;22.10;49.90;;;;;;5090740;28;20142;-75
2022/03/22 10:23:07;;;;;;;6.65;5.05;;;22.20;50.10;;;;;;5126246;27;20117;-77
2022/03/22 10:25:38;;;;;;;8.40;4.90;;;22.20;50.10;;;;;;5127226;27;20082;-77
2022/03/22 10:28:05;;;;;;;8.40;5.60;;;22.20;50.10;;;;;;5092578;28;20032;-76
2022/03/22 10:30:32;;;;;;;12.23;5.60;;;22.20;50.00;;;;;;5092093;28;20038;-75
2022/03/22 10:32:58;;;;;;;8.70;5.63;;;22.20;49.90;;;;;;5086502;28;20055;-74
2022/03/22 10:35:33;;;;;;;10.48;5.28;;;22.20;49.80;;;;;;5103916;27;20153;-78
2022/03/22 10:38:08;;;;;;;7.93;5.18;;;22.20;49.60;;;;;;5092159;28;20046;-79
2022/03/22 10:40:47;;;;;;;10.82;5.40;;;22.30;49.40;;;;;;5095752;28;20052;-77
2022/03/22 10:43:12;;;;;;;7.25;5.13;;;22.30;49.30;;;;;;5091169;28;20048;-74
2022/03/22 10:45:51;;;;;;;11.77;5.82;;;22.30;49.40;;;;;;5070174;28;20050;-77
2022/03/22 10:48:25;;;;;;;6.78;5.45;;;22.30;49.10;;;;;;5088014;28;20404;-75
2022/03/22 10:50:51;;;;;;;9.98;5.47;;;22.30;49.10;;;;;;5093898;28;20075;-77
2022/03/22 10:53:21;;;;;;;9.50;5.38;;;22.30;49.10;;;;;;5094296;28;20083;-73
2022/03/22 10:55:48;;;;;;;7.80;5.57;;;22.40;49.00;;;;;;5102398;28;20791;-73
2022/03/22 10:58:18;;;;;;;8.82;5.43;;;22.40;49.00;;;;;;5098622;28;20358;-74
2022/03/22 11:00:46;;;;;;;10.27;5.38;;;22.40;48.90;;;;;;5094139;28;20837;-74
2022/03/22 11:03:13;;;;;;;12.70;5.43;;;22.40;48.80;;;;;;5105741;27;20044;-74
2022/03/22 11:05:46;;;;;;;10.90;5.47;;;22.40;48.70;;;;;;5099472;28;20044;-77
2022/03/22 11:08:12;;;;;;;7.20;5.97;;;22.40;48.50;;;;;;5136142;27;20042;-75
2022/03/22 11:10:37;;;;;;;10.32;6.00;;;22.40;48.50;;;;;;5092382;28;20125;-75
2022/03/22 11:13:03;;;;;;;9.82;5.60;;;22.50;48.40;;;;;;5099335;28;20031;-75
2022/03/22 11:15:40;;;;;;;9.65;5.80;;;22.40;48.40;;;;;;5097672;28;20097;-75
2022/03/22 11:18:07;;;;;;;9.23;5.68;;;22.40;48.20;;;;;;5085846;28;20031;-74
2022/03/22 11:20:33;;;;;;;9.93;6.00;;;22.50;48.30;;;;;;5107869;27;20406;-74
2022/03/22 11:23:00;;;;;;;8.73;5.55;;;22.50;48.30;;;;;;5082760;28;20052;-73
2022/03/22 11:25:36;;;;;;;9.25;5.82;;;22.50;48.20;;;;;;5088174;28;20556;-77
2022/03/22 11:28:06;;;;;;;7.57;5.90;;;22.50;48.20;;;;;;5079540;28;20040;-73
2022/03/22 11:30:33;;;;;;;10.32;5.72;;;22.50;48.20;;;;;;5081540;28;20052;-73
2022/03/22 11:35:57;;;;;;;9.70;6.32;;;22.50;48.10;;;;;;5104086;28;20040;-75
2022/03/22 11:38:42;;;;;;;11.07;6.00;;;22.40;47.90;;;;;;5106176;28;20043;-75
2022/03/22 11:44:16;;;;;;;9.88;6.07;;;22.50;47.90;;;;;;5099040;28;20075;-74
2022/03/22 11:46:42;;;;;;;8.93;6.05;;;22.40;48.80;;;;;;5087108;28;20040;-74
2022/03/22 11:49:16;;;;;;;8.43;5.75;;;22.40;48.10;;;;;;5084872;28;20044;-73
2022/03/22 11:51:52;;;;;;;9.77;5.72;;;22.40;48.00;;;;;;5100581;28;20062;-73
2022/03/22 11:54:19;;;;;;;9.05;6.07;;;22.40;48.00;;;;;;5088605;28;20048;-74
2022/03/22 11:56:50;;;;;;;9.10;5.82;;;22.40;48.10;;;;;;5083819;28;20047;-75
2022/03/22 11:59:18;;;;;;;7.88;6.00;;;22.40;48.00;;;;;;5083726;28;20056;-74
2022/03/22 12:02:02;;;;;;;10.30;6.40;;;22.40;48.00;;;;;;5084682;28;20044;-77
2022/03/22 12:04:52;;;;;;;7.93;6.10;;;22.50;47.90;;;;;;5085953;28;20055;-77
2022/03/22 12:07:30;;;;;;;9.13;6.30;;;22.50;47.90;;;;;;5126206;27;20048;-80
2022/03/22 12:10:07;;;;;;;9.70;5.97;;;22.50;47.90;;;;;;5097026;28;20039;-78
2022/03/22 12:12:34;;;;;;;9.15;5.97;;;22.40;47.80;;;;;;5099649;28;20538;-79
2022/03/22 12:15:02;;;;;;;7.35;5.88;;;22.50;48.00;;;;;;5107383;27;20065;-79
2022/03/22 12:17:29;;;;;;;9.25;6.15;;;22.50;47.90;;;;;;5090663;28;20032;-77
2022/03/22 12:19:59;;;;;;;11.80;6.68;;;22.50;47.90;;;;;;5092220;28;20406;-76
2022/03/22 12:22:25;;;;;;;11.15;6.40;;;22.50;47.90;;;;;;5104483;28;20050;-75
2022/03/22 12:24:51;;;;;;;9.07;5.97;;;22.50;47.90;;;;;;5106616;28;20114;-76
2022/03/22 12:27:16;;;;;;;7.82;6.07;;;22.50;47.90;;;;;;5088831;28;20035;-74
2022/03/22 12:29:44;;;;;;;8.00;5.70;;;22.50;47.90;;;;;;5087164;28;20048;-74
2022/03/22 12:32:15;;;;;;;8.30;5.93;;;22.60;48.00;;;;;;5076520;28;20446;-74
2022/03/22 12:34:41;;;;;;;8.32;6.38;;;22.50;47.90;;;;;;5085533;28;20048;-74
2022/03/22 12:37:08;;;;;;;9.90;6.45;;;22.50;47.90;;;;;;5079764;28;20051;-72
2022/03/22 12:39:36;;;;;;;9.38;6.22;;;22.50;47.80;;;;;;5080258;28;20407;-74
2022/03/22 12:42:01;;;;;;;8.45;6.05;;;22.60;47.70;;;;;;5079775;28;20080;-74
2022/03/22 12:44:27;;;;;;;7.65;6.05;;;22.60;47.70;;;;;;5074002;28;20472;-73
2022/03/22 12:46:53;;;;;;;7.90;6.32;;;22.60;47.70;;;;;;5085627;28;20207;-72
2022/03/22 12:49:20;;;;;;;8.85;6.30;;;22.60;47.70;;;;;;5074927;28;20038;-72
2022/03/22 12:51:49;;;;;;;11.65;7.05;;;22.60;47.60;;;;;;5099607;28;20563;-72
2022/03/22 12:54:18;;;;;;;10.35;6.20;;;22.60;47.60;;;;;;5104647;28;20065;-73
2022/03/22 12:56:48;;;;;;;10.88;6.70;;;22.60;47.50;;;;;;5102048;28;20044;-72
2022/03/22 12:59:23;;;;;;;6.60;5.45;;;22.60;47.30;;;;;;5098689;28;20056;-71
2022/03/22 13:01:57;;;;;;;9.00;5.90;;;22.60;47.10;;;;;;5090485;28;20081;-72
2022/03/22 13:04:31;;;;;;;10.30;6.60;;;22.70;47.20;;;;;;5094285;28;20047;-72
2022/03/22 13:07:05;;;;;;;10.93;6.20;;;22.70;47.40;;;;;;5082356;28;20380;-76
2022/03/22 13:11:41;;;;;;;20.77;7.43;;;22.70;46.30;;;;;;5125608;27;20855;-65
2022/03/22 13:16:56;;;;;;;13.45;6.70;;;22.70;46.70;;;;;;5103635;28;20039;-66
2022/03/22 13:19:22;;;;;;;16.65;7.30;;;22.80;46.50;;;;;;5106066;28;20502;-64
2022/03/22 13:21:48;;;;;;;18.95;7.03;;;22.80;46.40;;;;;;5106556;28;20034;-66
2022/03/22 13:24:22;;;;;;;14.88;6.90;;;22.80;46.30;;;;;;5108002;28;20036;-67
2022/03/22 13:26:56;;;;;;;11.30;7.32;;;22.80;46.00;;;;;;5107303;28;20487;-70
2022/03/22 13:29:24;;;;;;;19.20;6.95;;;22.80;45.90;;;;;;5106628;28;20036;-68
2022/03/22 13:31:58;;;;;;;17.45;7.85;;;22.80;45.90;;;;;;5106767;28;20491;-68
2022/03/22 13:34:27;;;;;;;14.10;6.75;;;22.80;46.00;;;;;;5103688;28;20047;-66
2022/03/22 13:37:03;;;;;;;;;;;22.90;46.20;;;;;;5107783;28;20035;-68
2022/03/22 13:39:28;;;;;;;14.60;7.30;;;22.80;46.10;;;;;;5104301;28;19924;-67
2022/03/22 13:42:15;;;;;;;17.90;6.78;;;22.80;46.10;;;;;;5104921;28;20482;-67
2022/03/22 13:44:54;;;;;;;11.55;7.20;;;22.80;46.10;;;;;;5101940;28;20422;-67
2022/03/22 13:47:35;;;;;;;14.65;6.63;;;22.80;46.20;;;;;;5105224;28;20028;-67
2022/03/22 13:50:32;;;;;;;15.05;6.95;;;22.80;46.40;;;;;;5099331;28;20044;-67
2022/03/22 13:53:03;;;;;;;13.02;6.80;;;22.80;46.50;;;;;;5088504;28;20055;-68
2022/03/22 13:55:29;;;;;;;17.08;7.63;;;22.80;46.50;;;;;;5103864;28;20062;-68
2022/03/22 13:57:57;;;;;;;12.98;7.32;;;22.80;46.40;;;;;;5104788;28;20398;-68
2022/03/22 14:00:23;;;;;;;13.47;7.30;;;22.80;46.40;;;;;;5103341;28;20071;-68
2022/03/22 14:02:50;;;;;;;9.93;6.82;;;22.80;46.40;;;;;;5104929;28;20286;-68
2022/03/22 14:05:16;;;;;;;15.70;7.07;;;22.80;46.30;;;;;;5103700;28;20043;-67
2022/03/22 14:07:52;;;;;;;12.40;7.03;;;22.80;46.30;;;;;;5104860;28;20047;-66
2022/03/22 14:10:18;;;;;;;11.15;6.75;;;22.80;46.20;;;;;;5102071;28;20131;-67
2022/03/22 14:12:45;;;;;;;11.90;6.93;;;22.80;46.30;;;;;;5104879;28;20384;-67
2022/03/22 14:15:15;;;;;;;14.60;7.15;;;22.80;46.30;;;;;;5103022;28;20031;-67
2022/03/22 14:17:44;;;;;;;12.27;7.32;;;22.70;46.20;;;;;;5103034;28;20506;-68
2022/03/22 14:20:17;;;;;;;11.02;6.35;;;22.80;46.30;;;;;;5100681;28;20071;-67
2022/03/22 14:22:47;;;;;;;11.85;6.78;;;22.80;46.20;;;;;;5094234;28;20048;-68
2022/03/22 14:25:14;;;;;;;9.57;6.35;;;22.80;46.20;;;;;;5090037;28;20597;-68
2022/03/22 14:27:41;;;;;;;12.20;6.70;;;22.80;46.20;;;;;;5090401;28;20061;-68
2022/03/22 14:30:14;;;;;;;10.57;6.75;;;22.80;46.20;;;;;;5090273;28;20094;-68
2022/03/22 14:32:42;;;;;;;9.30;7.07;;;22.80;46.10;;;;;;5085948;28;20040;-67
2022/03/22 14:37:52;;;;;;;9.35;6.38;;;22.80;46.00;;;;;;5088877;28;20036;-72
2022/03/22 14:40:18;;;;;;;14.23;6.85;;;22.70;45.90;;;;;;5088279;28;20133;-68
2022/03/22 14:42:44;;;;;;;10.75;6.43;;;22.70;45.70;;;;;;5090483;28;20039;-69
2022/03/22 14:45:11;;;;;;;10.43;6.80;;;22.80;45.60;;;;;;5091577;28;20448;-69
2022/03/22 14:47:37;;;;;;;14.23;6.75;;;22.80;45.70;;;;;;5089248;28;20036;-69
2022/03/22 14:50:05;;;;;;;11.25;6.55;;;22.80;45.80;;;;;;5089374;28;20036;-70
2022/03/22 14:55:15;;;;;;;10.85;6.53;;;22.80;46.10;;;;;;5090853;28;20052;-69
2022/03/22 15:00:25;;;;;;;9.55;6.43;;;22.80;47.10;;;;;;5091069;28;20052;-69
2022/03/22 15:02:51;;;;;;;11.82;6.50;;;22.80;46.50;;;;;;5091946;28;20109;-69
2022/03/22 15:05:33;;;;;;;11.60;7.32;;;22.80;46.60;;;;;;5090363;28;20036;-69
2022/03/22 15:08:09;;;;;;;11.60;6.72;;;22.70;46.60;;;;;;5092618;28;20046;-69
2022/03/22 15:10:40;;;;;;;11.32;6.95;;;22.70;46.70;;;;;;5090128;28;20507;-69
2022/03/22 15:13:08;;;;;;;10.60;6.07;;;22.80;46.80;;;;;;5092694;28;20031;-70
2022/03/22 15:15:41;;;;;;;11.88;6.57;;;22.70;46.70;;;;;;5085195;28;20491;-69
2022/03/22 15:18:09;;;;;;;11.57;6.60;;;22.70;46.70;;;;;;5091773;28;20036;-68
2022/03/22 15:20:36;;;;;;;10.87;6.70;;;22.70;46.80;;;;;;5082667;28;20047;-69
2022/03/22 15:23:11;;;;;;;12.05;6.97;;;22.70;46.90;;;;;;5090355;28;20525;-69
2022/03/22 15:25:40;;;;;;;13.00;6.57;;;22.70;46.90;;;;;;5090986;28;20032;-69
2022/03/22 15:28:07;;;;;;;11.13;6.85;;;22.60;47.80;;;;;;5089961;28;20109;-69
2022/03/22 15:30:32;;;;;;;10.73;6.43;;;22.70;47.10;;;;;;5090561;28;20040;-69
2022/03/22 15:32:58;;;;;;;11.30;6.80;;;22.60;47.10;;;;;;5090202;28;20426;-68
2022/03/22 15:35:27;;;;;;;13.82;6.20;;;22.60;47.10;;;;;;5090222;28;20044;-69
2022/03/22 15:37:53;;;;;;;10.20;6.90;;;22.60;47.10;;;;;;5089499;28;20042;-68
2022/03/22 15:40:19;;;;;;;13.40;6.90;;;22.60;47.00;;;;;;5090479;28;20589;-69
2022/03/22 15:42:46;;;;;;;10.90;6.38;;;22.60;47.10;;;;;;5090931;28;20379;-68
2022/03/22 15:45:15;;;;;;;9.02;6.43;;;22.50;46.60;;;;;;5089407;28;20475;-69
2022/03/22 15:47:44;;;;;;;12.43;7.10;;;22.50;46.60;;;;;;5090471;28;20115;-68
2022/03/22 15:50:12;;;;;;;9.32;6.90;;;22.50;46.70;;;;;;5105575;28;20047;-75
2022/03/22 15:52:38;;;;;;;9.93;6.53;;;22.50;46.40;;;;;;5090237;28;20040;-70
2022/03/22 15:55:09;;;;;;;14.18;6.55;;;22.50;46.20;;;;;;5088291;28;20483;-74
2022/03/22 15:57:36;;;;;;;10.10;6.75;;;22.50;46.10;;;;;;5089959;28;20043;-71
2022/03/22 16:00:04;;;;;;;12.07;6.00;;;22.50;45.90;;;;;;5089892;28;20410;-71
2022/03/22 16:02:30;;;;;;;12.82;6.38;;;22.50;45.80;;;;;;5090075;28;20059;-73
2022/03/22 16:04:56;;;;;;;13.63;7.00;;;22.50;45.70;;;;;;5090670;28;20406;-70
2022/03/22 16:07:23;;;;;;;14.40;6.85;;;22.50;45.70;;;;;;5089602;28;20202;-71
2022/03/22 16:09:49;;;;;;;11.73;6.53;;;22.50;45.60;;;;;;5088103;28;20066;-72
2022/03/22 16:12:14;;;;;;;13.73;6.35;;;22.40;45.60;;;;;;5086209;28;20040;-71
2022/03/22 16:14:40;;;;;;;9.73;6.25;;;22.50;45.70;;;;;;5089839;28;20039;-70
2022/03/22 16:17:06;;;;;;;17.63;7.05;;;22.40;45.60;;;;;;5123833;27;20362;-71
2022/03/22 16:19:32;;;;;;;16.08;6.82;;;22.40;45.70;;;;;;5088509;28;20244;-69
2022/03/22 16:21:58;;;;;;;14.77;6.70;;;22.40;45.90;;;;;;5085932;28;20484;-71
2022/03/22 16:24:24;;;;;;;12.93;6.80;;;22.40;46.00;;;;;;5070921;28;20040;-69
2022/03/22 16:26:49;;;;;;;13.75;6.70;;;22.40;46.00;;;;;;5090494;28;20120;-67
2022/03/22 16:29:16;;;;;;;15.38;6.93;;;22.40;46.00;;;;;;5089830;28;20032;-68
2022/03/22 16:31:42;;;;;;;15.10;6.78;;;22.40;46.10;;;;;;5088872;28;20039;-70
2022/03/22 16:36:55;;;;;;;14.70;7.20;;;22.30;46.10;;;;;;5089546;28;20048;-70
2022/03/22 16:39:25;;;;;;;12.85;7.22;;;22.30;46.20;;;;;;5090573;28;20422;-70
2022/03/22 16:42:05;;;;;;;20.02;7.38;;;22.30;46.20;;;;;;5068212;28;20086;-69
2022/03/22 16:44:41;;;;;;;16.85;7.20;;;22.40;46.30;;;;;;5089561;28;20050;-70
2022/03/22 16:47:12;;;;;;;24.45;7.47;;;22.30;46.30;;;;;;5088432;28;20048;-70
2022/03/22 16:49:40;;;;;;;14.10;6.97;;;22.30;46.50;;;;;;5074318;28;20032;-71
2022/03/22 16:52:07;;;;;;;17.40;7.10;;;22.30;46.60;;;;;;5090866;28;20261;-71
2022/03/22 16:54:34;;;;;;;15.77;7.40;;;22.30;46.60;;;;;;5089382;28;20040;-70
2022/03/22 16:57:01;;;;;;;16.80;7.32;;;22.20;46.50;;;;;;5087105;28;20039;-74
2022/03/22 16:59:32;;;;;;;14.35;7.15;;;22.20;46.50;;;;;;5084448;28;20033;-72
2022/03/22 17:01:58;;;;;;;18.13;7.38;;;22.20;46.50;;;;;;5086693;28;20046;-75
2022/03/22 17:04:24;;;;;;;40.47;13.50;;;22.20;46.40;;;;;;5089410;28;20098;-70
2022/03/22 17:06:50;;;;;;;39.63;13.57;;;22.20;46.60;;;;;;5088127;28;20531;-67
2022/03/22 17:09:17;;;;;;;35.97;11.55;;;22.20;46.90;;;;;;5088867;28;20028;-75
2022/03/22 17:11:44;;;;;;;30.38;11.38;;;22.10;47.60;;;;;;5086712;28;20055;-70
2022/03/22 17:14:10;;;;;;;27.58;11.38;;;22.20;48.50;;;;;;5088172;28;20040;-72
2022/03/22 17:16:37;;;;;;;30.23;10.95;;;22.20;49.50;;;;;;5089954;28;20442;-70
2022/03/22 17:19:04;;;;;;;31.30;11.02;;;22.20;50.20;;;;;;5087866;28;20494;-72
2022/03/22 17:21:34;;;;;;;30.63;10.70;;;22.20;50.60;;;;;;5089216;28;20044;-71
2022/03/22 17:24:05;;;;;;;27.85;9.75;;;22.20;50.50;;;;;;5112717;28;20432;-69
2022/03/22 17:26:32;;;;;;;28.45;9.63;;;22.20;50.60;;;;;;5085662;28;20097;-68
2022/03/22 17:28:59;;;;;;;22.95;9.55;;;22.20;50.90;;;;;;5086447;28;20119;-69
2022/03/22 17:31:26;;;;;;;27.77;10.23;;;22.20;51.00;;;;;;5083319;28;20157;-69
2022/03/22 17:33:53;;;;;;;25.40;9.87;;;22.20;51.00;;;;;;5069565;28;20127;-68
2022/03/22 17:36:20;;;;;;;23.25;9.68;;;22.20;51.80;;;;;;5085628;28;20126;-69
2022/03/22 17:38:46;;;;;;;21.90;9.40;;;22.20;51.00;;;;;;5087306;28;20043;-69
2022/03/22 17:41:12;;;;;;;26.08;10.40;;;22.20;51.00;;;;;;5070379;28;20118;-69
2022/03/22 17:43:39;;;;;;;31.95;9.73;;;22.20;50.80;;;;;;5081119;28;20041;-69
2022/03/22 17:46:06;;;;;;;22.45;9.18;;;22.20;50.70;;;;;;5087091;28;20040;-69
2022/03/22 17:48:32;;;;;;;23.25;9.23;;;22.20;50.70;;;;;;5081577;28;20079;-70
2022/03/22 17:50:59;;;;;;;21.20;8.90;;;22.20;50.70;;;;;;5088775;28;20032;-70
2022/03/22 17:53:28;;;;;;;24.98;10.10;;;22.20;50.60;;;;;;5088005;28;20118;-69
2022/03/22 17:55:57;;;;;;;19.88;9.73;;;22.10;50.60;;;;;;5084402;28;20044;-69
2022/03/22 17:58:23;;;;;;;22.83;8.85;;;22.20;50.90;;;;;;5089548;28;20047;-68
2022/03/22 18:00:50;;;;;;;19.55;8.60;;;22.10;51.30;;;;;;5087935;28;20757;-70
2022/03/22 18:03:17;;;;;;;21.23;8.88;;;22.10;51.50;;;;;;5088782;28;20047;-71
2022/03/22 18:05:50;;;;;;;21.50;9.18;;;22.10;51.50;;;;;;5120247;27;20048;-69
2022/03/22 18:08:25;;;;;;;18.73;9.55;;;22.10;51.50;;;;;;5088505;28;20145;-68
2022/03/22 18:13:37;;;;;;;20.17;9.13;;;22.10;51.50;;;;;;5090602;28;20072;-71
2022/03/22 18:16:02;;;;;;;22.27;9.18;;;22.10;51.50;;;;;;5125636;27;20040;-69
2022/03/22 18:18:28;;;;;;;18.98;8.25;;;22.10;51.40;;;;;;5086796;28;20039;-68
2022/03/22 18:20:55;;;;;;;25.98;9.55;;;22.10;51.40;;;;;;5091045;28;20056;-70
2022/03/22 18:23:23;;;;;;;17.70;8.23;;;22.10;51.40;;;;;;5088016;28;20044;-70
2022/03/22 18:59:23;;;;;;;16.80;8.32;;;22.00;51.70;;;;;;5089684;28;20020;-73
2022/03/22 19:01:49;;;;;;;19.48;7.95;;;21.90;51.60;;;;;;5073765;28;20048;-72
2022/03/22 19:04:15;;;;;;;16.23;8.30;;;21.90;51.60;;;;;;5091792;28;20035;-71
2022/03/22 19:06:40;;;;;;;19.67;8.07;;;21.90;51.50;;;;;;5113027;27;20391;-73
2022/03/22 19:09:07;;;;;;;17.33;8.40;;;21.90;51.40;;;;;;5092200;28;20039;-72
2022/03/22 19:11:33;;;;;;;18.27;8.10;;;21.90;51.50;;;;;;5111107;28;20052;-74
2022/03/22 19:13:59;;;;;;;16.00;8.15;;;21.90;51.40;;;;;;5111857;28;20110;-71
2022/03/22 19:19:09;;;;;;;14.48;7.88;;;21.90;51.40;;;;;;5108462;28;20465;-71
2022/03/22 19:21:35;;;;;;;18.25;8.07;;;21.80;51.30;;;;;;5090342;28;20042;-71
2022/03/22 19:24:01;;;;;;;15.77;7.78;;;21.90;51.40;;;;;;5110519;27;20084;-73
2022/03/22 19:26:27;;;;;;;17.50;8.43;;;21.90;51.40;;;;;;5108233;28;20039;-74
2022/03/22 19:28:53;;;;;;;14.23;7.97;;;21.80;51.30;;;;;;5111408;27;20043;-71
2022/03/22 19:34:03;;;;;;;17.67;8.70;;;21.80;51.40;;;;;;5123567;27;20036;-71
2022/03/22 19:36:31;;;;;;;17.80;7.88;;;21.80;51.40;;;;;;5115658;27;20055;-73
2022/03/22 19:38:57;;;;;;;22.73;7.73;;;21.80;51.40;;;;;;5109818;28;20039;-71
2022/03/22 19:41:22;;;;;;;12.57;7.55;;;21.80;51.40;;;;;;5113356;27;20379;-73
2022/03/22 19:43:48;;;;;;;18.00;8.20;;;21.80;51.40;;;;;;5108434;27;20054;-73
2022/03/22 19:46:14;;;;;;;13.70;8.23;;;21.80;51.40;;;;;;5110701;28;20047;-71
2022/03/22 19:48:41;;;;;;;12.93;7.50;;;21.80;51.40;;;;;;5108486;28;20490;-74
2022/03/22 19:51:07;;;;;;;12.48;7.68;;;21.80;51.40;;;;;;5109632;27;20054;-72
2022/03/22 19:53:34;;;;;;;14.48;8.27;;;21.80;51.40;;;;;;5109960;28;20077;-74
2022/03/22 19:56:00;;;;;;;13.60;7.70;;;21.70;51.40;;;;;;5110914;28;20043;-71
2022/03/22 19:58:26;;;;;;;13.13;8.18;;;21.70;51.30;;;;;;5090285;28;20070;-72
2022/03/22 20:00:52;;;;;;;16.58;7.70;;;21.70;51.40;;;;;;5110483;28;20123;-74
2022/03/22 20:03:20;;;;;;;15.18;8.10;;;21.70;51.30;;;;;;5108776;28;20082;-71
2022/03/22 20:05:46;;;;;;;18.83;8.63;;;21.70;52.10;;;;;;5108236;28;20039;-73
2022/03/22 20:08:12;;;;;;;14.05;8.50;;;21.70;51.40;;;;;;5108533;28;20047;-71
2022/03/22 20:10:41;;;;;;;13.77;7.85;;;21.70;51.40;;;;;;5109021;28;20050;-74
2022/03/22 20:13:11;;;;;;;15.38;8.27;;;21.70;51.40;;;;;;5075975;28;20049;-72
2022/03/22 20:15:38;;;;;;;14.55;7.40;;;21.70;51.30;;;;;;5092813;28;20554;-73
2022/03/22 20:18:06;;;;;;;15.05;8.35;;;21.70;51.30;;;;;;5109762;28;20062;-72
2022/03/22 20:20:33;;;;;;;14.17;8.20;;;21.60;51.30;;;;;;5108600;28;20051;-72
2022/03/22 20:22:59;;;;;;;15.98;8.57;;;21.70;51.40;;;;;;5109013;27;20301;-72
2022/03/22 20:25:25;;;;;;;15.48;8.52;;;21.60;51.40;;;;;;5096757;28;20040;-73
2022/03/22 20:27:53;;;;;;;15.45;7.57;;;21.60;51.40;;;;;;5091146;28;20051;-72
2022/03/22 20:30:20;;;;;;;16.80;8.63;;;21.60;51.50;;;;;;5108814;28;20032;-73
2022/03/22 20:32:47;;;;;;;14.07;8.25;;;21.60;51.50;;;;;;5089530;28;20119;-71
2022/03/22 20:35:16;;;;;;;14.13;7.70;;;21.60;51.50;;;;;;5108711;28;20047;-73
2022/03/22 20:37:44;;;;;;;14.02;8.40;;;21.60;51.60;;;;;;5107104;28;20035;-72
2022/03/22 20:40:14;;;;;;;16.60;8.63;;;21.60;51.70;;;;;;5110140;27;20111;-74
2022/03/22 20:42:40;;;;;;;14.82;8.48;;;21.60;51.70;;;;;;5110119;28;20558;-73
2022/03/22 20:45:12;;;;;;;16.25;8.35;;;21.60;51.70;;;;;;5108525;28;20092;-72
2022/03/22 20:47:38;;;;;;;14.85;8.32;;;21.60;51.80;;;;;;5090367;28;20039;-73
2022/03/22 20:50:04;;;;;;;12.07;8.15;;;21.60;51.80;;;;;;5107668;28;20035;-74
2022/03/22 20:52:30;;;;;;;15.15;7.50;;;21.50;51.80;;;;;;5110098;27;20483;-73
2022/03/22 20:54:55;;;;;;;15.20;8.93;;;21.50;51.80;;;;;;5109839;28;20027;-71
2022/03/22 21:00:09;;;;;;;18.40;7.95;;;21.50;51.80;;;;;;5105041;28;20035;-74
2022/03/22 21:02:36;;;;;;;12.45;7.78;;;21.50;51.80;;;;;;5109038;28;20036;-72
2022/03/22 21:05:04;;;;;;;13.32;8.02;;;21.50;51.80;;;;;;5090613;28;20040;-73
2022/03/22 21:07:30;;;;;;;12.15;8.73;;;21.50;51.90;;;;;;5091325;28;20074;-75
2022/03/22 21:09:56;;;;;;;14.02;8.00;;;21.40;51.80;;;;;;5105970;28;20059;-73
2022/03/22 21:12:22;;;;;;;13.98;8.15;;;21.50;51.90;;;;;;5110457;28;20478;-74
2022/03/22 21:14:48;;;;;;;15.55;8.40;;;21.50;51.80;;;;;;5108627;28;20039;-74
2022/03/22 21:17:15;;;;;;;12.27;8.10;;;21.40;51.80;;;;;;5109336;28;20418;-74
2022/03/22 21:19:41;;;;;;;13.18;7.85;;;21.40;51.80;;;;;;5105257;28;20039;-72
2022/03/22 21:22:07;;;;;;;16.55;8.70;;;21.40;51.80;;;;;;5089723;28;20042;-72
2022/03/22 21:24:33;;;;;;;11.02;8.38;;;21.40;51.80;;;;;;5114485;28;20506;-72
2022/03/22 21:27:00;;;;;;;13.88;8.00;;;21.40;51.80;;;;;;5091273;28;20390;-72
2022/03/22 21:29:27;;;;;;;12.82;8.07;;;21.40;51.80;;;;;;5092226;28;20043;-73
2022/03/22 21:31:53;;;;;;;11.25;7.72;;;21.40;51.80;;;;;;5120214;27;20139;-72
2022/03/22 21:34:19;;;;;;;11.75;8.18;;;21.40;51.90;;;;;;5117337;27;20027;-72
2022/03/22 21:36:45;;;;;;;11.80;7.80;;;;;;;;;;5114563;28;20521;-72
2022/03/22 21:39:11;;;;;;;12.98;8.07;;;21.40;51.10;;;;;;5113308;28;20379;-74
2022/03/22 21:41:37;;;;;;;11.40;8.07;;;21.30;51.70;;;;;;5110345;27;20134;-71
2022/03/22 21:44:03;;;;;;;14.50;7.90;;;21.30;51.70;;;;;;5118387;27;20035;-72
2022/03/22 21:46:29;;;;;;;11.25;8.20;;;21.30;51.70;;;;;;5114538;28;20163;-74
2022/03/22 21:48:54;;;;;;;14.70;8.10;;;21.30;51.70;;;;;;5113476;28;20043;-73
2022/03/22 21:51:20;;;;;;;11.63;7.95;;;21.30;51.70;;;;;;5094764;28;20039;-70
2022/03/22 21:53:48;;;;;;;11.75;7.97;;;21.30;51.70;;;;;;5113060;27;20032;-73
2022/03/22 21:56:14;;;;;;;11.95;8.20;;;21.30;51.70;;;;;;5113588;28;20512;-74
2022/03/22 21:58:40;;;;;;;11.27;7.60;;;21.30;51.60;;;;;;5113151;28;20076;-73
2022/03/22 22:01:08;;;;;;;12.90;7.28;;;21.30;51.60;;;;;;5121596;27;20039;-75
2022/03/22 22:03:35;;;;;;;12.32;7.90;;;21.30;51.70;;;;;;5126299;27;20819;-73
2022/03/22 22:06:02;;;;;;;10.57;7.93;;;21.20;51.60;;;;;;5114115;28;20390;-72
2022/03/22 22:08:28;;;;;;;11.95;8.15;;;21.20;51.60;;;;;;5096069;28;20096;-74
2022/03/22 22:10:54;;;;;;;10.25;7.90;;;21.20;51.50;;;;;;5111516;28;20120;-74
2022/03/22 22:13:20;;;;;;;13.80;8.70;;;21.20;51.50;;;;;;5112033;28;20144;-73
2022/03/22 22:15:47;;;;;;;11.60;7.70;;;21.20;51.60;;;;;;5094846;28;20044;-72
2022/03/22 22:18:13;;;;;;;11.65;8.18;;;21.20;51.50;;;;;;5111929;28;20443;-73
2022/03/22 22:20:39;;;;;;;10.77;7.85;;;21.20;51.50;;;;;;5093978;28;20050;-72
2022/03/22 22:23:05;;;;;;;11.13;7.72;;;21.20;51.50;;;;;;5111804;28;20043;-72
2022/03/22 22:25:32;;;;;;;12.73;8.23;;;21.20;51.60;;;;;;5111863;27;20044;-72
2022/03/22 22:28:01;;;;;;;13.63;7.90;;;21.10;51.50;;;;;;5111357;28;20043;-74
2022/03/22 22:30:28;;;;;;;11.10;7.88;;;21.10;51.50;;;;;;5110856;28;20051;-74
2022/03/22 22:35:38;;;;;;;10.75;7.72;;;21.10;51.50;;;;;;5109300;28;20044;-71
2022/03/22 22:38:06;;;;;;;13.90;8.18;;;21.10;51.50;;;;;;5111966;28;20027;-74
2022/03/22 22:40:32;;;;;;;11.02;7.93;;;21.10;51.50;;;;;;5114436;27;20169;-73
2022/03/22 22:43:00;;;;;;;11.88;7.07;;;21.00;51.40;;;;;;5094912;28;20189;-74
2022/03/22 22:45:26;;;;;;;9.30;7.43;;;21.00;51.50;;;;;;5110338;28;20118;-71
2022/03/22 22:47:53;;;;;;;10.80;7.63;;;21.10;51.50;;;;;;5112825;28;20059;-72
2022/03/22 22:50:19;;;;;;;11.25;7.90;;;21.00;51.40;;;;;;5092091;28;20043;-72
2022/03/22 22:52:45;;;;;;;10.98;8.18;;;21.00;51.40;;;;;;5124985;27;20035;-73
2022/03/22 22:55:11;;;;;;;11.15;7.70;;;21.00;51.40;;;;;;5110377;28;20091;-73
2022/03/22 22:57:37;;;;;;;11.35;8.23;;;21.00;51.40;;;;;;5093706;28;20451;-73
2022/03/22 23:00:45;;;;;;;11.60;7.88;;;21.00;51.50;;;;;;5111147;27;20641;-74
2022/03/22 23:02:56;;;;;;;11.43;7.97;;;20.80;55.10;;;;;;5112513;27;20054;-73
2022/03/22 23:05:22;;;;;;;11.65;8.00;;;20.90;51.20;;;;;;5110590;28;20031;-75
2022/03/22 23:10:42;;;;;;;11.23;8.40;;;21.10;53.60;;;;;;5036163;28;20057;-75
2022/03/22 23:13:08;;;;;;;11.20;8.40;;;20.90;51.20;;;;;;5116013;27;20679;-75
2022/03/22 23:15:35;;;;;;;12.55;9.18;;;20.90;51.10;;;;;;5093661;28;20074;-76
2022/03/22 23:18:01;;;;;;;14.43;9.75;;;21.00;51.30;;;;;;5096929;28;20047;-72
2022/03/22 23:20:27;;;;;;;13.18;9.55;;;20.90;51.00;;;;;;5095606;28;20031;-73
2022/03/22 23:22:53;;;;;;;13.85;9.45;;;20.80;50.90;;;;;;5116243;28;20470;-73
2022/03/22 23:25:19;;;;;;;13.43;9.65;;;20.80;50.90;;;;;;5113189;27;20027;-73
2022/03/22 23:27:45;;;;;;;12.45;8.70;;;20.80;50.90;;;;;;5094900;28;20036;-73
2022/03/22 23:30:11;;;;;;;9.95;7.80;;;20.80;50.90;;;;;;5109794;28;20040;-72
2022/03/22 23:32:37;;;;;;;12.38;9.20;;;20.70;50.80;;;;;;5111356;28;20093;-74
2022/03/22 23:35:04;;;;;;;11.15;8.40;;;20.70;50.80;;;;;;5110714;28;20047;-73
2022/03/22 23:37:29;;;;;;;10.98;8.57;;;20.80;50.70;;;;;;5105478;28;20023;-73
2022/03/22 23:39:55;;;;;;;10.18;8.38;;;20.70;51.40;;;;;;5109990;28;20058;-73
2022/03/22 23:42:21;;;;;;;12.30;8.70;;;20.70;50.60;;;;;;5110042;28;20118;-74
2022/03/22 23:44:47;;;;;;;11.07;8.43;;;20.70;50.60;;;;;;5092952;28;20043;-73
2022/03/22 23:47:13;;;;;;;12.50;8.23;;;20.70;50.60;;;;;;5093443;28;20043;-73
2022/03/22 23:49:39;;;;;;;10.75;8.23;;;20.70;50.50;;;;;;5110718;28;20031;-72
2022/03/22 23:52:06;;;;;;;12.32;8.93;;;20.60;50.50;;;;;;5091735;28;20798;-73
2022/03/22 23:54:34;;;;;;;10.25;7.60;;;20.70;50.60;;;;;;5104758;27;20043;-74
2022/03/22 23:57:01;;;;;;;12.40;8.48;;;20.60;50.50;;;;;;5112012;27;20600;-73
2022/03/22 23:59:27;;;;;;;10.82;8.43;;;20.60;50.50;;;;;;5109855;28;20032;-74
